sensor_id;sensor_type;location;lat;lon;timestamp;pressure;altitude;pressure_sealevel;temperature;humidity
15914;BME280;8055;51.930;8.840;2023-04-29T00:01:02;75530.88;;;-145.72;100.00
15914;BME280;8055;51.930;8.840;2023-04-29T00:03:28;75532.94;;;-145.72;100.00
15914;BME280;8055;51.930;8.840;2023-04-29T00:05:59;75532.94;;;-145.72;100.00
15914;BME280;8055;51.930;8.840;2023-04-29T00:08:25;75526.72;;;-145.72;100.00
15914;BME280;8055;51.930;8.840;2023-04-29T00:10:50;75537.06;;;-145.72;100.00
15914;BME280;8055;51.930;8.840;2023-04-29T00:13:16;75537.06;;;-145.72;100.00
15914;BME280;8055;51.930;8.840;2023-04-29T00:15:42;75545.34;;;-145.72;100.00
15914;BME280;8055;51.930;8.840;2023-04-29T00:18:07;75549.50;;;-145.72;100.00
15914;BME280;8055;51.930;8.840;2023-04-29T00:20:33;75553.63;;;-145.72;100.00
15914;BME280;8055;51.930;8.840;2023-04-29T00:22:59;75563.97;;;-145.72;100.00
15914;BME280;8055;51.930;8.840;2023-04-29T00:25:24;75572.25;;;-145.72;100.00
15914;BME280;8055;51.930;8.840;2023-04-29T00:27:49;75572.25;;;-145.72;100.00
15914;BME280;8055;51.930;8.840;2023-04-29T00:30:15;75576.38;;;-145.72;100.00
15914;BME280;8055;51.930;8.840;2023-04-29T00:32:40;75578.47;;;-145.72;100.00
15914;BME280;8055;51.930;8.840;2023-04-29T00:35:06;75572.25;;;-145.72;100.00
15914;BME280;8055;51.930;8.840;2023-04-29T00:37:31;75582.59;;;-145.72;100.00
15914;BME280;8055;51.930;8.840;2023-04-29T00:39:57;75588.81;;;-145.72;100.00
15914;BME280;8055;51.930;8.840;2023-04-29T00:42:22;75590.88;;;-145.72;100.00
15914;BME280;8055;51.930;8.840;2023-04-29T00:44:48;75592.94;;;-145.72;100.00
15914;BME280;8055;51.930;8.840;2023-04-29T00:47:13;75601.22;;;-145.72;100.00
15914;BME280;8055;51.930;8.840;2023-04-29T00:49:39;75605.34;;;-145.72;100.00
15914;BME280;8055;51.930;8.840;2023-04-29T00:52:04;75611.56;;;-145.72;100.00
15914;BME280;8055;51.930;8.840;2023-04-29T00:54:33;75607.44;;;-145.72;100.00
15914;BME280;8055;51.930;8.840;2023-04-29T00:57:00;75609.50;;;-145.72;100.00
15914;BME280;8055;51.930;8.840;2023-04-29T00:59:27;75615.69;;;-145.72;100.00
15914;BME280;8055;51.930;8.840;2023-04-29T01:02:00;75621.91;;;-145.72;100.00
15914;BME280;8055;51.930;8.840;2023-04-29T01:04:27;75621.91;;;-145.72;100.00
15914;BME280;8055;51.930;8.840;2023-04-29T01:07:17;75621.91;;;-145.72;100.00
15914;BME280;8055;51.930;8.840;2023-04-29T01:09:52;75626.06;;;-145.72;100.00
15914;BME280;8055;51.930;8.840;2023-04-29T01:15:16;75632.25;;;-145.72;100.00
15914;BME280;8055;51.930;8.840;2023-04-29T01:17:56;75636.41;;;-145.72;100.00
15914;BME280;8055;51.930;8.840;2023-04-29T01:20:25;75638.47;;;-145.72;100.00
15914;BME280;8055;51.930;8.840;2023-04-29T01:22:50;75650.88;;;-145.72;100.00
15914;BME280;8055;51.930;8.840;2023-04-29T01:25:16;75655.03;;;-145.72;100.00
15914;BME280;8055;51.930;8.840;2023-04-29T01:30:49;75659.16;;;-145.72;100.00
15914;BME280;8055;51.930;8.840;2023-04-29T01:33:39;75657.09;;;-145.72;100.00
15914;BME280;8055;51.930;8.840;2023-04-29T01:39:03;75673.63;;;-145.72;100.00
15914;BME280;8055;51.930;8.840;2023-04-29T01:41:46;75667.44;;;-145.72;100.00
15914;BME280;8055;51.930;8.840;2023-04-29T01:44:19;75677.78;;;-145.72;100.00
15914;BME280;8055;51.930;8.840;2023-04-29T01:46:49;75686.06;;;-145.72;100.00
15914;BME280;8055;51.930;8.840;2023-04-29T01:49:19;75686.06;;;-145.72;100.00
15914;BME280;8055;51.930;8.840;2023-04-29T01:51:44;75688.13;;;-145.72;100.00
15914;BME280;8055;51.930;8.840;2023-04-29T01:54:10;75694.34;;;-145.72;100.00
15914;BME280;8055;51.930;8.840;2023-04-29T01:56:35;75698.47;;;-145.72;100.00
15914;BME280;8055;51.930;8.840;2023-04-29T01:59:01;75708.81;;;-145.72;100.00
15914;BME280;8055;51.930;8.840;2023-04-29T02:01:26;75708.81;;;-145.72;100.00
15914;BME280;8055;51.930;8.840;2023-04-29T02:03:51;75712.94;;;-145.72;100.00
15914;BME280;8055;51.930;8.840;2023-04-29T02:06:17;75719.16;;;-145.72;100.00
15914;BME280;8055;51.930;8.840;2023-04-29T02:08:42;75710.88;;;-145.72;100.00
15914;BME280;8055;51.930;8.840;2023-04-29T02:11:08;75719.16;;;-145.72;100.00
15914;BME280;8055;51.930;8.840;2023-04-29T02:13:33;75721.22;;;-145.72;100.00
15914;BME280;8055;51.930;8.840;2023-04-29T02:16:09;75727.44;;;-145.72;100.00
15914;BME280;8055;51.930;8.840;2023-04-29T02:18:35;75731.56;;;-145.72;100.00
15914;BME280;8055;51.930;8.840;2023-04-29T02:21:01;75733.66;;;-145.72;100.00
15914;BME280;8055;51.930;8.840;2023-04-29T02:23:26;75739.84;;;-145.72;100.00
15914;BME280;8055;51.930;8.840;2023-04-29T02:25:52;75746.06;;;-145.72;100.00
15914;BME280;8055;51.930;8.840;2023-04-29T02:28:18;75752.28;;;-145.72;100.00
15914;BME280;8055;51.930;8.840;2023-04-29T02:30:43;75756.41;;;-145.72;100.00
15914;BME280;8055;51.930;8.840;2023-04-29T02:33:09;75758.47;;;-145.72;100.00
15914;BME280;8055;51.930;8.840;2023-04-29T02:35:34;75764.69;;;-145.72;100.00
15914;BME280;8055;51.930;8.840;2023-04-29T02:38:00;75772.97;;;-145.72;100.00
15914;BME280;8055;51.930;8.840;2023-04-29T02:40:25;75772.97;;;-145.72;100.00
15914;BME280;8055;51.930;8.840;2023-04-29T02:42:51;75777.09;;;-145.72;100.00
15914;BME280;8055;51.930;8.840;2023-04-29T02:45:16;75789.50;;;-145.72;100.00
15914;BME280;8055;51.930;8.840;2023-04-29T02:47:42;75787.44;;;-145.72;100.00
15914;BME280;8055;51.930;8.840;2023-04-29T02:50:08;75789.50;;;-145.72;100.00
15914;BME280;8055;51.930;8.840;2023-04-29T02:52:33;75793.66;;;-145.72;100.00
15914;BME280;8055;51.930;8.840;2023-04-29T02:54:58;75793.66;;;-145.72;100.00
15914;BME280;8055;51.930;8.840;2023-04-29T02:57:24;75799.88;;;-145.72;100.00
15914;BME280;8055;51.930;8.840;2023-04-29T02:59:49;75804.00;;;-145.72;100.00
15914;BME280;8055;51.930;8.840;2023-04-29T03:02:15;75801.94;;;-145.72;100.00
15914;BME280;8055;51.930;8.840;2023-04-29T03:04:41;75806.06;;;-145.72;100.00
15914;BME280;8055;51.930;8.840;2023-04-29T03:07:07;75814.34;;;-145.72;100.00
15914;BME280;8055;51.930;8.840;2023-04-29T03:09:32;75808.13;;;-145.72;100.00
15914;BME280;8055;51.930;8.840;2023-04-29T03:11:58;75816.41;;;-145.72;100.00
15914;BME280;8055;51.930;8.840;2023-04-29T03:14:23;75826.75;;;-145.72;100.00
15914;BME280;8055;51.930;8.840;2023-04-29T03:16:49;75826.75;;;-145.72;100.00
15914;BME280;8055;51.930;8.840;2023-04-29T03:19:14;75841.25;;;-145.72;100.00
15914;BME280;8055;51.930;8.840;2023-04-29T03:21:41;75837.09;;;-145.72;100.00
15914;BME280;8055;51.930;8.840;2023-04-29T03:24:06;75835.03;;;-145.72;100.00
15914;BME280;8055;51.930;8.840;2023-04-29T03:26:32;75843.31;;;-145.72;100.00
15914;BME280;8055;51.930;8.840;2023-04-29T03:28:57;75845.38;;;-145.72;100.00
15914;BME280;8055;51.930;8.840;2023-04-29T03:31:23;75847.44;;;-145.72;100.00
15914;BME280;8055;51.930;8.840;2023-04-29T03:33:49;75845.38;;;-145.72;100.00
15914;BME280;8055;51.930;8.840;2023-04-29T03:36:15;75853.66;;;-145.72;100.00
15914;BME280;8055;51.930;8.840;2023-04-29T03:38:41;75855.72;;;-145.72;100.00
15914;BME280;8055;51.930;8.840;2023-04-29T03:41:06;75864.00;;;-145.72;100.00
15914;BME280;8055;51.930;8.840;2023-04-29T03:43:32;75866.06;;;-145.72;100.00
15914;BME280;8055;51.930;8.840;2023-04-29T03:45:57;75870.22;;;-145.72;100.00
15914;BME280;8055;51.930;8.840;2023-04-29T03:48:23;75874.34;;;-145.72;100.00
15914;BME280;8055;51.930;8.840;2023-04-29T03:50:49;75874.34;;;-145.72;100.00
15914;BME280;8055;51.930;8.840;2023-04-29T03:53:14;75880.56;;;-145.72;100.00
15914;BME280;8055;51.930;8.840;2023-04-29T03:55:40;75882.63;;;-145.72;100.00
15914;BME280;8055;51.930;8.840;2023-04-29T03:58:05;75888.84;;;-145.72;100.00
15914;BME280;8055;51.930;8.840;2023-04-29T04:00:31;75884.69;;;-145.72;100.00
15914;BME280;8055;51.930;8.840;2023-04-29T04:02:57;75895.03;;;-145.72;100.00
15914;BME280;8055;51.930;8.840;2023-04-29T04:05:23;75897.13;;;-145.72;100.00
15914;BME280;8055;51.930;8.840;2023-04-29T04:07:50;75890.91;;;-145.72;100.00
15914;BME280;8055;51.930;8.840;2023-04-29T04:10:16;75897.13;;;-145.72;100.00
15914;BME280;8055;51.930;8.840;2023-04-29T04:12:41;75901.25;;;-145.72;100.00
15914;BME280;8055;51.930;8.840;2023-04-29T04:15:07;75901.25;;;-145.72;100.00
15914;BME280;8055;51.930;8.840;2023-04-29T04:17:33;75909.53;;;-145.72;100.00
15914;BME280;8055;51.930;8.840;2023-04-29T04:19:58;75915.75;;;-145.72;100.00
15914;BME280;8055;51.930;8.840;2023-04-29T04:22:23;75913.66;;;-145.72;100.00
15914;BME280;8055;51.930;8.840;2023-04-29T04:24:48;75917.81;;;-145.72;100.00
15914;BME280;8055;51.930;8.840;2023-04-29T04:27:14;75919.88;;;-145.72;100.00
15914;BME280;8055;51.930;8.840;2023-04-29T04:29:39;75917.81;;;-145.72;100.00
15914;BME280;8055;51.930;8.840;2023-04-29T04:32:05;75932.28;;;-145.72;100.00
15914;BME280;8055;51.930;8.840;2023-04-29T04:34:30;75938.50;;;-145.72;100.00
15914;BME280;8055;51.930;8.840;2023-04-29T04:36:56;75948.84;;;-145.72;100.00
15914;BME280;8055;51.930;8.840;2023-04-29T04:39:21;75942.63;;;-145.72;100.00
15914;BME280;8055;51.930;8.840;2023-04-29T04:41:47;75948.84;;;-145.72;100.00
15914;BME280;8055;51.930;8.840;2023-04-29T04:44:12;75953.00;;;-145.72;100.00
15914;BME280;8055;51.930;8.840;2023-04-29T04:46:38;75953.00;;;-145.72;100.00
15914;BME280;8055;51.930;8.840;2023-04-29T04:49:04;75955.06;;;-145.72;100.00
15914;BME280;8055;51.930;8.840;2023-04-29T04:51:30;75957.13;;;-145.72;100.00
15914;BME280;8055;51.930;8.840;2023-04-29T04:53:55;75955.06;;;-145.72;100.00
15914;BME280;8055;51.930;8.840;2023-04-29T04:56:21;75957.13;;;-145.72;100.00
15914;BME280;8055;51.930;8.840;2023-04-29T04:58:46;75965.41;;;-145.72;100.00
15914;BME280;8055;51.930;8.840;2023-04-29T05:01:12;75969.53;;;-145.72;100.00
15914;BME280;8055;51.930;8.840;2023-04-29T05:03:37;75971.63;;;-145.72;100.00
15914;BME280;8055;51.930;8.840;2023-04-29T05:06:02;75975.75;;;-145.72;100.00
15914;BME280;8055;51.930;8.840;2023-04-29T05:08:28;75979.88;;;-145.72;100.00
15914;BME280;8055;51.930;8.840;2023-04-29T05:10:54;75988.16;;;-145.72;100.00
15914;BME280;8055;51.930;8.840;2023-04-29T05:13:20;75988.16;;;-145.72;100.00
15914;BME280;8055;51.930;8.840;2023-04-29T05:15:45;75994.38;;;-145.72;100.00
15914;BME280;8055;51.930;8.840;2023-04-29T05:18:11;75986.09;;;-145.72;100.00
15914;BME280;8055;51.930;8.840;2023-04-29T05:20:36;76006.78;;;-145.72;100.00
15914;BME280;8055;51.930;8.840;2023-04-29T05:23:02;76004.72;;;-145.72;100.00
15914;BME280;8055;51.930;8.840;2023-04-29T05:25:28;76010.94;;;-145.72;100.00
15914;BME280;8055;51.930;8.840;2023-04-29T05:27:53;76010.94;;;-145.72;100.00
15914;BME280;8055;51.930;8.840;2023-04-29T05:30:19;76010.94;;;-145.72;100.00
15914;BME280;8055;51.930;8.840;2023-04-29T05:32:45;76021.28;;;-145.72;100.00
15914;BME280;8055;51.930;8.840;2023-04-29T05:35:10;76017.13;;;-145.72;100.00
15914;BME280;8055;51.930;8.840;2023-04-29T05:37:36;76023.34;;;-145.72;100.00
15914;BME280;8055;51.930;8.840;2023-04-29T05:40:02;76025.41;;;-145.72;100.00
15914;BME280;8055;51.930;8.840;2023-04-29T05:42:28;76023.34;;;-145.72;100.00
15914;BME280;8055;51.930;8.840;2023-04-29T05:44:53;76019.22;;;-145.72;100.00
15914;BME280;8055;51.930;8.840;2023-04-29T05:47:19;76023.34;;;-145.72;100.00
15914;BME280;8055;51.930;8.840;2023-04-29T05:49:44;76033.69;;;-145.72;100.00
15914;BME280;8055;51.930;8.840;2023-04-29T05:52:10;76039.91;;;-145.72;100.00
15914;BME280;8055;51.930;8.840;2023-04-29T05:54:36;76039.91;;;-145.72;100.00
15914;BME280;8055;51.930;8.840;2023-04-29T05:57:01;76046.09;;;-145.72;100.00
15914;BME280;8055;51.930;8.840;2023-04-29T05:59:31;76056.47;;;-145.72;100.00
15914;BME280;8055;51.930;8.840;2023-04-29T06:01:57;76052.31;;;-145.72;100.00
15914;BME280;8055;51.930;8.840;2023-04-29T06:04:23;76056.47;;;-145.72;100.00
15914;BME280;8055;51.930;8.840;2023-04-29T06:06:50;76058.53;;;-145.72;100.00
15914;BME280;8055;51.930;8.840;2023-04-29T06:09:16;76058.53;;;-145.72;100.00
15914;BME280;8055;51.930;8.840;2023-04-29T06:11:42;76064.72;;;-145.72;100.00
15914;BME280;8055;51.930;8.840;2023-04-29T06:14:09;76064.72;;;-145.72;100.00
15914;BME280;8055;51.930;8.840;2023-04-29T06:16:34;76052.31;;;-145.72;100.00
15914;BME280;8055;51.930;8.840;2023-04-29T06:19:00;76060.59;;;-145.72;100.00
15914;BME280;8055;51.930;8.840;2023-04-29T06:21:26;76068.88;;;-145.72;100.00
15914;BME280;8055;51.930;8.840;2023-04-29T06:23:52;76073.00;;;-145.72;100.00
15914;BME280;8055;51.930;8.840;2023-04-29T06:26:18;76070.94;;;-145.72;100.00
15914;BME280;8055;51.930;8.840;2023-04-29T06:28:45;76066.81;;;-145.72;100.00
15914;BME280;8055;51.930;8.840;2023-04-29T06:31:11;76066.81;;;-145.72;100.00
15914;BME280;8055;51.930;8.840;2023-04-29T06:33:36;76077.16;;;-145.72;100.00
15914;BME280;8055;51.930;8.840;2023-04-29T06:36:02;76075.09;;;-145.72;100.00
15914;BME280;8055;51.930;8.840;2023-04-29T06:38:28;76081.28;;;-145.72;100.00
15914;BME280;8055;51.930;8.840;2023-04-29T06:40:54;76081.28;;;-145.72;100.00
15914;BME280;8055;51.930;8.840;2023-04-29T06:43:19;76081.28;;;-145.72;100.00
15914;BME280;8055;51.930;8.840;2023-04-29T06:45:45;76085.44;;;-145.72;100.00
15914;BME280;8055;51.930;8.840;2023-04-29T06:48:11;76087.50;;;-145.72;100.00
15914;BME280;8055;51.930;8.840;2023-04-29T06:50:36;76091.63;;;-145.72;100.00
15914;BME280;8055;51.930;8.840;2023-04-29T06:53:02;76085.44;;;-145.72;100.00
15914;BME280;8055;51.930;8.840;2023-04-29T06:55:27;76093.72;;;-145.72;100.00
15914;BME280;8055;51.930;8.840;2023-04-29T06:57:52;76101.97;;;-145.72;100.00
15914;BME280;8055;51.930;8.840;2023-04-29T07:00:18;76097.84;;;-145.72;100.00
15914;BME280;8055;51.930;8.840;2023-04-29T07:02:45;76097.84;;;-145.72;100.00
15914;BME280;8055;51.930;8.840;2023-04-29T07:05:11;76108.19;;;-145.72;100.00
15914;BME280;8055;51.930;8.840;2023-04-29T07:07:36;76106.13;;;-145.72;100.00
15914;BME280;8055;51.930;8.840;2023-04-29T07:10:02;76110.25;;;-145.72;100.00
15914;BME280;8055;51.930;8.840;2023-04-29T07:12:27;76108.19;;;-145.72;100.00
15914;BME280;8055;51.930;8.840;2023-04-29T07:14:53;76110.25;;;-145.72;100.00
15914;BME280;8055;51.930;8.840;2023-04-29T07:17:18;76118.53;;;-145.72;100.00
15914;BME280;8055;51.930;8.840;2023-04-29T07:19:44;76114.41;;;-145.72;100.00
15914;BME280;8055;51.930;8.840;2023-04-29T07:22:10;76110.25;;;-145.72;100.00
15914;BME280;8055;51.930;8.840;2023-04-29T07:24:35;76104.06;;;-145.72;100.00
15914;BME280;8055;51.930;8.840;2023-04-29T07:27:01;76095.78;;;-145.72;100.00
15914;BME280;8055;51.930;8.840;2023-04-29T07:29:26;76083.34;;;-145.72;100.00
15914;BME280;8055;51.930;8.840;2023-04-29T07:31:52;76079.22;;;-145.72;100.00
15914;BME280;8055;51.930;8.840;2023-04-29T07:34:18;76095.78;;;-145.72;100.00
15914;BME280;8055;51.930;8.840;2023-04-29T07:36:43;76099.91;;;-145.72;100.00
15914;BME280;8055;51.930;8.840;2023-04-29T07:39:08;76097.84;;;-145.72;100.00
15914;BME280;8055;51.930;8.840;2023-04-29T07:41:36;76104.06;;;-145.72;100.00
15914;BME280;8055;51.930;8.840;2023-04-29T07:44:02;76099.91;;;-145.72;100.00
15914;BME280;8055;51.930;8.840;2023-04-29T07:46:27;76104.06;;;-145.72;100.00
15914;BME280;8055;51.930;8.840;2023-04-29T07:48:52;76106.13;;;-145.72;100.00
15914;BME280;8055;51.930;8.840;2023-04-29T07:51:18;76087.50;;;-145.72;100.00
15914;BME280;8055;51.930;8.840;2023-04-29T07:53:43;76099.91;;;-145.72;100.00
15914;BME280;8055;51.930;8.840;2023-04-29T07:56:09;76104.06;;;-145.72;100.00
15914;BME280;8055;51.930;8.840;2023-04-29T07:58:34;76108.19;;;-145.72;100.00
15914;BME280;8055;51.930;8.840;2023-04-29T08:01:07;76083.34;;;-145.72;100.00
15914;BME280;8055;51.930;8.840;2023-04-29T08:03:33;76079.22;;;-145.72;100.00
15914;BME280;8055;51.930;8.840;2023-04-29T08:06:00;76095.78;;;-145.72;100.00
15914;BME280;8055;51.930;8.840;2023-04-29T08:08:26;76091.63;;;-145.72;100.00
15914;BME280;8055;51.930;8.840;2023-04-29T08:10:51;76093.72;;;-145.72;100.00
15914;BME280;8055;51.930;8.840;2023-04-29T08:13:17;76085.44;;;-145.72;100.00
15914;BME280;8055;51.930;8.840;2023-04-29T08:15:42;76093.72;;;-145.72;100.00
15914;BME280;8055;51.930;8.840;2023-04-29T08:18:08;76101.97;;;-145.72;100.00
15914;BME280;8055;51.930;8.840;2023-04-29T08:20:33;76101.97;;;-145.72;100.00
15914;BME280;8055;51.930;8.840;2023-04-29T08:22:58;76110.25;;;-145.72;100.00
15914;BME280;8055;51.930;8.840;2023-04-29T08:25:25;76106.13;;;-145.72;100.00
15914;BME280;8055;51.930;8.840;2023-04-29T08:27:51;76106.13;;;-145.72;100.00
15914;BME280;8055;51.930;8.840;2023-04-29T08:30:17;76093.72;;;-145.72;100.00
15914;BME280;8055;51.930;8.840;2023-04-29T08:32:42;76099.91;;;-145.72;100.00
15914;BME280;8055;51.930;8.840;2023-04-29T08:35:08;76085.44;;;-145.72;100.00
15914;BME280;8055;51.930;8.840;2023-04-29T08:37:33;76077.16;;;-145.72;100.00
15914;BME280;8055;51.930;8.840;2023-04-29T08:39:59;76093.72;;;-145.72;100.00
15914;BME280;8055;51.930;8.840;2023-04-29T08:42:32;76089.56;;;-145.72;100.00
15914;BME280;8055;51.930;8.840;2023-04-29T08:44:58;76095.78;;;-145.72;100.00
15914;BME280;8055;51.930;8.840;2023-04-29T08:47:25;76085.44;;;-145.72;100.00
15914;BME280;8055;51.930;8.840;2023-04-29T08:49:52;76083.34;;;-145.72;100.00
15914;BME280;8055;51.930;8.840;2023-04-29T08:52:18;76075.09;;;-145.72;100.00
15914;BME280;8055;51.930;8.840;2023-04-29T08:54:43;76070.94;;;-145.72;100.00
15914;BME280;8055;51.930;8.840;2023-04-29T08:57:10;76079.22;;;-145.72;100.00
15914;BME280;8055;51.930;8.840;2023-04-29T08:59:36;76087.50;;;-145.72;100.00
15914;BME280;8055;51.930;8.840;2023-04-29T09:02:03;76073.00;;;-145.72;100.00
15914;BME280;8055;51.930;8.840;2023-04-29T09:04:36;76060.59;;;-145.72;100.00
15914;BME280;8055;51.930;8.840;2023-04-29T09:07:06;76041.97;;;-145.72;100.00
15914;BME280;8055;51.930;8.840;2023-04-29T09:09:32;76052.31;;;-145.72;100.00
15914;BME280;8055;51.930;8.840;2023-04-29T09:11:58;76052.31;;;-145.72;100.00
15914;BME280;8055;51.930;8.840;2023-04-29T09:14:24;76041.97;;;-145.72;100.00
15914;BME280;8055;51.930;8.840;2023-04-29T09:16:49;76046.09;;;-145.72;100.00
15914;BME280;8055;51.930;8.840;2023-04-29T09:19:32;76041.97;;;-145.72;100.00
15914;BME280;8055;51.930;8.840;2023-04-29T09:21:59;76048.19;;;-145.72;100.00
15914;BME280;8055;51.930;8.840;2023-04-29T09:24:26;76048.19;;;-145.72;100.00
15914;BME280;8055;51.930;8.840;2023-04-29T09:26:52;76060.59;;;-145.72;100.00
15914;BME280;8055;51.930;8.840;2023-04-29T09:29:18;76058.53;;;-145.72;100.00
15914;BME280;8055;51.930;8.840;2023-04-29T09:31:44;76064.72;;;-145.72;100.00
15914;BME280;8055;51.930;8.840;2023-04-29T09:34:10;76048.19;;;-145.72;100.00
15914;BME280;8055;51.930;8.840;2023-04-29T09:36:50;76037.84;;;-145.72;100.00
15914;BME280;8055;51.930;8.840;2023-04-29T09:39:21;76037.84;;;-145.72;100.00
15914;BME280;8055;51.930;8.840;2023-04-29T09:44:20;76044.03;;;-145.72;100.00
15914;BME280;8055;51.930;8.840;2023-04-29T09:47:05;76027.47;;;-145.72;100.00
15914;BME280;8055;51.930;8.840;2023-04-29T09:49:35;76015.06;;;-145.72;100.00
15914;BME280;8055;51.930;8.840;2023-04-29T09:52:04;76006.78;;;-145.72;100.00
15914;BME280;8055;51.930;8.840;2023-04-29T09:54:32;75990.25;;;-145.72;100.00
15914;BME280;8055;51.930;8.840;2023-04-29T09:56:59;75998.50;;;-145.72;100.00
15914;BME280;8055;51.930;8.840;2023-04-29T09:59:25;75984.03;;;-145.72;100.00
15914;BME280;8055;51.930;8.840;2023-04-29T10:01:56;75969.53;;;-145.72;100.00
15914;BME280;8055;51.930;8.840;2023-04-29T10:04:24;75926.09;;;-145.72;100.00
15914;BME280;8055;51.930;8.840;2023-04-29T10:06:52;75886.78;;;-145.72;100.00
15914;BME280;8055;51.930;8.840;2023-04-29T10:09:18;75917.81;;;-145.72;100.00
15914;BME280;8055;51.930;8.840;2023-04-29T10:11:45;75899.19;;;-145.72;100.00
15914;BME280;8055;51.930;8.840;2023-04-29T10:14:14;75913.66;;;-145.72;100.00
15914;BME280;8055;51.930;8.840;2023-04-29T10:17:01;75903.31;;;-145.72;100.00
15914;BME280;8055;51.930;8.840;2023-04-29T10:19:57;75909.53;;;-145.72;100.00
15914;BME280;8055;51.930;8.840;2023-04-29T10:22:38;75888.84;;;-145.72;100.00
15914;BME280;8055;51.930;8.840;2023-04-29T10:25:06;75884.69;;;-145.72;100.00
15914;BME280;8055;51.930;8.840;2023-04-29T10:27:33;75876.44;;;-145.72;100.00
15914;BME280;8055;51.930;8.840;2023-04-29T10:30:02;75849.53;;;-145.72;100.00
15914;BME280;8055;51.930;8.840;2023-04-29T10:32:29;75843.31;;;-145.72;100.00
15914;BME280;8055;51.930;8.840;2023-04-29T10:34:55;75810.22;;;-145.72;100.00
15914;BME280;8055;51.930;8.840;2023-04-29T10:37:22;75783.31;;;-145.72;100.00
15914;BME280;8055;51.930;8.840;2023-04-29T10:40:09;75779.16;;;-145.72;100.00
15914;BME280;8055;51.930;8.840;2023-04-29T10:42:52;75804.00;;;-145.72;100.00
15914;BME280;8055;51.930;8.840;2023-04-29T10:48:07;75864.00;;;-145.72;100.00
15914;BME280;8055;51.930;8.840;2023-04-29T10:53:03;75928.16;;;-145.72;100.00
15914;BME280;8055;51.930;8.840;2023-04-29T10:55:29;75940.56;;;-145.72;100.00
15914;BME280;8055;51.930;8.840;2023-04-29T10:57:55;75915.75;;;-145.72;100.00
15914;BME280;8055;51.930;8.840;2023-04-29T11:00:25;75907.47;;;-145.72;100.00
15914;BME280;8055;51.930;8.840;2023-04-29T11:02:53;75907.47;;;-145.72;100.00
15914;BME280;8055;51.930;8.840;2023-04-29T11:05:32;75890.91;;;-145.72;100.00
15914;BME280;8055;51.930;8.840;2023-04-29T11:08:10;75882.63;;;-145.72;100.00
15914;BME280;8055;51.930;8.840;2023-04-29T11:10:40;75884.69;;;-145.72;100.00
15914;BME280;8055;51.930;8.840;2023-04-29T11:16:03;75812.28;;;-145.72;100.00
15914;BME280;8055;51.930;8.840;2023-04-29T11:18:29;75832.97;;;-145.72;100.00
15914;BME280;8055;51.930;8.840;2023-04-29T11:23:36;75830.91;;;-145.72;100.00
15914;BME280;8055;51.930;8.840;2023-04-29T11:26:02;75832.97;;;-145.72;100.00
15914;BME280;8055;51.930;8.840;2023-04-29T11:28:30;75855.72;;;-145.72;100.00
15914;BME280;8055;51.930;8.840;2023-04-29T11:30:56;75876.44;;;-145.72;100.00
15914;BME280;8055;51.930;8.840;2023-04-29T11:33:22;75857.81;;;-145.72;100.00
15914;BME280;8055;51.930;8.840;2023-04-29T11:35:48;75851.59;;;-145.72;100.00
15914;BME280;8055;51.930;8.840;2023-04-29T11:38:14;75878.50;;;-145.72;100.00
15914;BME280;8055;51.930;8.840;2023-04-29T11:40:49;75857.81;;;-145.72;100.00
15914;BME280;8055;51.930;8.840;2023-04-29T11:43:18;75847.44;;;-145.72;100.00
15914;BME280;8055;51.930;8.840;2023-04-29T11:45:44;75828.84;;;-145.72;100.00
15914;BME280;8055;51.930;8.840;2023-04-29T11:48:21;75806.06;;;-145.72;100.00
15914;BME280;8055;51.930;8.840;2023-04-29T11:50:56;75785.38;;;-145.72;100.00
15914;BME280;8055;51.930;8.840;2023-04-29T11:53:26;75787.44;;;-145.72;100.00
15914;BME280;8055;51.930;8.840;2023-04-29T11:55:54;75770.88;;;-145.72;100.00
15914;BME280;8055;51.930;8.840;2023-04-29T11:58:21;75752.28;;;-145.72;100.00
15914;BME280;8055;51.930;8.840;2023-04-29T12:00:47;75772.97;;;-145.72;100.00
15914;BME280;8055;51.930;8.840;2023-04-29T12:03:14;75764.69;;;-145.72;100.00
15914;BME280;8055;51.930;8.840;2023-04-29T12:06:00;75783.31;;;-145.72;100.00
15914;BME280;8055;51.930;8.840;2023-04-29T12:08:27;75801.94;;;-145.72;100.00
15914;BME280;8055;51.930;8.840;2023-04-29T12:10:55;75837.09;;;-145.72;100.00
15914;BME280;8055;51.930;8.840;2023-04-29T12:13:23;75855.72;;;-145.72;100.00
15914;BME280;8055;51.930;8.840;2023-04-29T12:15:49;75890.91;;;-145.72;100.00
15914;BME280;8055;51.930;8.840;2023-04-29T12:18:16;75899.19;;;-145.72;100.00
15914;BME280;8055;51.930;8.840;2023-04-29T12:20:43;75895.03;;;-145.72;100.00
15914;BME280;8055;51.930;8.840;2023-04-29T12:23:17;75903.31;;;-145.72;100.00
15914;BME280;8055;51.930;8.840;2023-04-29T12:26:03;75911.59;;;-145.72;100.00
15914;BME280;8055;51.930;8.840;2023-04-29T12:28:28;75909.53;;;-145.72;100.00
15914;BME280;8055;51.930;8.840;2023-04-29T12:30:55;75901.25;;;-145.72;100.00
15914;BME280;8055;51.930;8.840;2023-04-29T12:33:22;75897.13;;;-145.72;100.00
15914;BME280;8055;51.930;8.840;2023-04-29T12:35:53;75892.97;;;-145.72;100.00
15914;BME280;8055;51.930;8.840;2023-04-29T12:38:37;75870.22;;;-145.72;100.00
15914;BME280;8055;51.930;8.840;2023-04-29T12:41:03;75878.50;;;-145.72;100.00
15914;BME280;8055;51.930;8.840;2023-04-29T12:43:32;75872.28;;;-145.72;100.00
15914;BME280;8055;51.930;8.840;2023-04-29T12:46:06;75853.66;;;-145.72;100.00
15914;BME280;8055;51.930;8.840;2023-04-29T12:48:33;75845.38;;;-145.72;100.00
15914;BME280;8055;51.930;8.840;2023-04-29T12:51:02;75841.25;;;-145.72;100.00
15914;BME280;8055;51.930;8.840;2023-04-29T12:53:28;75816.41;;;-145.72;100.00
15914;BME280;8055;51.930;8.840;2023-04-29T12:55:54;75820.56;;;-145.72;100.00
15914;BME280;8055;51.930;8.840;2023-04-29T12:58:19;75820.56;;;-145.72;100.00
15914;BME280;8055;51.930;8.840;2023-04-29T13:00:45;75841.25;;;-145.72;100.00
15914;BME280;8055;51.930;8.840;2023-04-29T13:03:10;75851.59;;;-145.72;100.00